createdAt,value
2019-06-08T00:01:28.271Z,18.50
2019-06-08T00:04:01.124Z,18.60
2019-06-08T00:06:40.294Z,18.50
2019-06-08T00:09:13.072Z,18.50
2019-06-08T00:11:51.173Z,18.70
2019-06-08T00:14:25.644Z,18.60
2019-06-08T00:17:31.374Z,18.60
2019-06-08T00:19:58.676Z,18.60
2019-06-08T00:22:38.916Z,18.60
2019-06-08T00:25:19.004Z,18.50
2019-06-08T00:27:52.482Z,18.60
2019-06-08T00:30:25.264Z,18.60
2019-06-08T00:32:58.155Z,18.80
2019-06-08T00:35:41.238Z,19.00
2019-06-08T00:38:16.908Z,19.00
2019-06-08T00:40:54.305Z,18.80
2019-06-08T00:43:27.674Z,18.80
2019-06-08T00:46:03.489Z,19.10
2019-06-08T00:48:36.215Z,18.90
2019-06-08T00:51:12.585Z,18.80
2019-06-08T00:53:47.592Z,18.60
2019-06-08T00:56:25.853Z,18.70
2019-06-08T00:59:03.852Z,18.70
2019-06-08T01:01:40.724Z,18.60
2019-06-08T01:04:20.618Z,18.60
2019-06-08T01:06:54.338Z,18.80
2019-06-08T01:09:31.205Z,18.60
2019-06-08T01:12:09.668Z,18.60
2019-06-08T01:14:47.648Z,18.80
2019-06-08T01:17:21.098Z,18.50
2019-06-08T01:19:56.661Z,18.40
2019-06-08T01:22:29.628Z,18.70
2019-06-08T01:25:02.463Z,18.70
2019-06-08T01:27:35.330Z,18.80
2019-06-08T01:30:10.598Z,18.90
2019-06-08T01:32:49.446Z,18.90
2019-06-08T01:35:26.941Z,18.90
2019-06-08T01:38:01.113Z,19.10
2019-06-08T01:40:33.935Z,19.00
2019-06-08T01:43:08.427Z,18.90
2019-06-08T01:45:44.241Z,18.90
2019-06-08T01:48:20.276Z,18.80
2019-06-08T01:50:52.638Z,18.70
2019-06-08T01:53:29.243Z,18.60
2019-06-08T01:56:03.121Z,18.60
2019-06-08T01:58:35.983Z,18.40
2019-06-08T02:01:08.783Z,18.40
2019-06-08T02:03:41.663Z,18.40
2019-06-08T02:06:14.443Z,18.40
2019-06-08T02:08:49.733Z,18.60
2019-06-08T02:11:22.538Z,18.50
2019-06-08T02:14:00.179Z,18.50
2019-06-08T02:16:39.678Z,18.50
2019-06-08T02:19:20.841Z,18.50
2019-06-08T02:22:02.395Z,18.60
2019-06-08T02:24:35.534Z,18.50
2019-06-08T02:27:08.691Z,18.60
2019-06-08T02:29:49.200Z,18.90
2019-06-08T02:32:33.042Z,18.50
2019-06-08T02:35:10.174Z,18.80
2019-06-08T02:37:43.071Z,18.60
2019-06-08T02:40:18.851Z,18.60
2019-06-08T02:42:57.198Z,18.50
2019-06-08T02:45:34.048Z,18.60
2019-06-08T02:48:08.598Z,18.40
2019-06-08T02:50:43.384Z,18.60
2019-06-08T02:53:16.237Z,18.70
2019-06-08T02:55:50.687Z,18.60
2019-06-08T02:58:23.580Z,18.40
2019-06-08T03:00:56.774Z,18.40
2019-06-08T03:03:29.670Z,18.40
2019-06-08T03:06:07.652Z,18.30
2019-06-08T03:08:43.518Z,18.20
2019-06-08T03:11:17.496Z,18.30
2019-06-08T03:13:57.369Z,18.20
2019-06-08T03:16:33.404Z,18.50
2019-06-08T03:19:21.651Z,18.30
2019-06-08T03:21:49.848Z,18.30
2019-06-08T03:24:32.245Z,18.10
2019-06-08T03:27:02.727Z,18.10
2019-06-08T03:29:41.579Z,18.00
2019-06-08T03:32:20.077Z,18.10
2019-06-08T03:34:56.689Z,18.20
2019-06-08T03:37:35.805Z,18.10
2019-06-08T03:40:13.113Z,18.10
2019-06-08T03:42:45.964Z,18.00
2019-06-08T03:45:18.709Z,18.00
2019-06-08T03:47:51.570Z,18.10
2019-06-08T03:50:24.384Z,18.00
2019-06-08T03:53:09.451Z,17.90
2019-06-08T03:55:48.036Z,17.90
2019-06-08T03:58:21.350Z,17.90
2019-06-08T04:01:06.119Z,17.90
2019-06-08T04:03:39.964Z,17.80
2019-06-08T04:06:15.330Z,17.80
2019-06-08T04:08:49.950Z,17.90
2019-06-08T04:11:27.015Z,17.90
2019-06-08T04:14:02.793Z,17.90
2019-06-08T04:16:40.031Z,17.90
2019-06-08T04:19:15.625Z,18.00
2019-06-08T04:22:02.335Z,17.90
2019-06-08T04:24:34.754Z,17.90
2019-06-08T04:27:08.211Z,17.90
2019-06-08T04:29:41.784Z,17.90
2019-06-08T04:32:15.439Z,18.10
2019-06-08T04:34:49.989Z,18.10
2019-06-08T04:37:22.873Z,18.00
2019-06-08T04:39:57.388Z,18.00
2019-06-08T04:42:39.362Z,18.00
2019-06-08T04:45:16.401Z,17.90
2019-06-08T04:47:52.219Z,18.00
2019-06-08T04:50:28.075Z,18.00
2019-06-08T04:53:00.945Z,17.90
2019-06-08T04:55:34.919Z,17.90
2019-06-08T04:58:15.760Z,17.80
2019-06-08T05:00:50.834Z,17.90
2019-06-08T05:03:31.717Z,17.90
2019-06-08T05:06:04.639Z,17.90
2019-06-08T05:08:38.945Z,17.90
2019-06-08T05:11:11.986Z,17.90
2019-06-08T05:13:45.337Z,17.90
2019-06-08T05:16:19.382Z,18.00
2019-06-08T05:18:54.434Z,18.00
2019-06-08T05:21:30.150Z,18.00
2019-06-08T05:24:08.251Z,17.90
2019-06-08T05:26:41.907Z,18.00
2019-06-08T05:29:20.921Z,18.30
2019-06-08T05:32:01.476Z,18.20
2019-06-08T05:34:36.423Z,18.20
2019-06-08T05:37:10.808Z,18.30
2019-06-08T05:39:49.913Z,18.20
2019-06-08T05:42:24.786Z,18.30
2019-06-08T05:45:06.123Z,18.30
2019-06-08T05:47:39.732Z,18.30
2019-06-08T05:50:12.714Z,18.40
2019-06-08T05:52:50.447Z,18.40
2019-06-08T05:55:25.886Z,18.40
2019-06-08T05:58:02.330Z,18.40
2019-06-08T06:00:38.116Z,18.50
2019-06-08T06:03:14.214Z,18.60
2019-06-08T06:05:49.010Z,18.70
2019-06-08T06:08:21.718Z,18.60
2019-06-08T06:10:54.613Z,18.70
2019-06-08T06:13:34.981Z,18.70
2019-06-08T06:16:07.665Z,18.70
2019-06-08T06:18:44.980Z,18.90
2019-06-08T06:21:20.875Z,18.90
2019-06-08T06:23:55.238Z,19.20
2019-06-08T06:26:29.968Z,19.20
2019-06-08T06:29:02.907Z,19.20
2019-06-08T06:31:35.849Z,19.30
2019-06-08T06:34:08.514Z,19.80
2019-06-08T06:36:47.771Z,20.00
2019-06-08T06:39:20.910Z,20.20
2019-06-08T06:41:53.881Z,20.20
2019-06-08T06:44:37.500Z,20.70
2019-06-08T06:47:10.363Z,21.20
2019-06-08T06:49:46.281Z,21.40
2019-06-08T06:52:19.341Z,21.60
2019-06-08T06:54:53.284Z,21.50
2019-06-08T06:57:26.563Z,21.40
2019-06-08T07:00:01.797Z,21.60
2019-06-08T07:02:37.225Z,21.40
2019-06-08T07:05:10.200Z,21.70
2019-06-08T07:07:44.124Z,22.30
2019-06-08T07:10:17.411Z,22.80
2019-06-08T07:12:52.820Z,23.20
2019-06-08T07:15:26.355Z,23.10
2019-06-08T07:17:59.096Z,22.80
2019-06-08T07:20:34.300Z,23.30
2019-06-08T07:23:07.023Z,23.70
2019-06-08T07:25:40.435Z,23.80
2019-06-08T07:28:16.147Z,23.90
2019-06-08T07:30:54.863Z,24.60
2019-06-08T07:33:31.111Z,25.40
2019-06-08T07:36:03.825Z,25.80
2019-06-08T07:38:38.353Z,25.70
2019-06-08T07:41:11.125Z,24.70
2019-06-08T07:43:43.818Z,24.50
2019-06-08T07:46:16.739Z,25.00
2019-06-08T07:48:54.473Z,25.90
2019-06-08T07:51:33.701Z,24.90
2019-06-08T07:54:06.445Z,25.60
2019-06-08T07:56:39.191Z,25.60
2019-06-08T07:59:15.259Z,26.20
2019-06-08T08:01:50.003Z,26.00
2019-06-08T08:04:22.668Z,25.80
2019-06-08T08:07:20.864Z,26.00
2019-06-08T08:09:54.953Z,26.10
2019-06-08T08:12:30.958Z,25.20
2019-06-08T08:15:03.673Z,25.70
2019-06-08T08:17:39.479Z,26.30
2019-06-08T08:20:14.008Z,26.40
2019-06-08T08:22:49.216Z,26.70
2019-06-08T08:25:28.099Z,26.20
2019-06-08T08:28:03.586Z,26.40
2019-06-08T08:30:37.717Z,25.90
2019-06-08T08:33:10.805Z,26.00
2019-06-08T08:35:51.031Z,26.00
2019-06-08T08:38:27.513Z,25.90
2019-06-08T08:41:07.204Z,26.00
2019-06-08T08:43:39.094Z,25.90
2019-06-08T08:46:14.301Z,25.90
2019-06-08T08:48:52.451Z,26.20
2019-06-08T08:51:27.763Z,26.30
2019-06-08T08:54:04.877Z,26.30
2019-06-08T08:56:38.277Z,26.20
2019-06-08T08:59:11.378Z,26.10
2019-06-08T09:01:51.266Z,25.90
2019-06-08T09:04:28.305Z,26.00
2019-06-08T09:07:06.943Z,25.90
2019-06-08T09:09:38.697Z,25.60
2019-06-08T09:12:13.805Z,25.80
2019-06-08T09:14:51.896Z,25.70
2019-06-08T09:17:27.981Z,25.80
2019-06-08T09:20:03.813Z,25.70
2019-06-08T09:22:52.034Z,26.00
2019-06-08T09:25:17.982Z,26.00
2019-06-08T09:27:54.604Z,26.10
2019-06-08T09:30:34.784Z,26.20
2019-06-08T09:33:08.096Z,25.80
2019-06-08T09:35:47.699Z,25.00
2019-06-08T09:38:19.197Z,25.30
2019-06-08T09:40:53.241Z,25.30
2019-06-08T09:43:32.069Z,25.70
2019-06-08T09:46:05.560Z,25.90
2019-06-08T09:48:39.329Z,26.30
2019-06-08T09:51:15.328Z,26.40
2019-06-08T09:53:48.279Z,26.80
2019-06-08T09:56:28.019Z,26.70
2019-06-08T09:59:07.212Z,26.60
2019-06-08T10:01:38.919Z,26.70
2019-06-08T10:04:13.404Z,27.30
2019-06-08T10:06:47.962Z,27.60
2019-06-08T10:09:25.239Z,27.50
2019-06-08T10:11:59.578Z,27.40
2019-06-08T10:14:34.754Z,27.50
2019-06-08T10:17:08.866Z,27.60
2019-06-08T10:19:42.029Z,27.40
2019-06-08T10:22:14.823Z,27.20
2019-06-08T10:24:49.884Z,26.90
2019-06-08T10:27:22.956Z,27.20
2019-06-08T10:29:58.615Z,27.80
2019-06-08T10:32:31.359Z,27.80
2019-06-08T10:35:10.148Z,27.90
2019-06-08T10:37:41.798Z,27.60
2019-06-08T10:40:14.729Z,26.80
2019-06-08T10:42:49.880Z,27.10
2019-06-08T10:45:22.708Z,27.40
2019-06-08T10:47:59.681Z,26.90
2019-06-08T10:50:33.729Z,26.50
2019-06-08T10:53:10.553Z,26.40
2019-06-08T10:55:41.114Z,26.30
2019-06-08T10:58:19.415Z,26.10
2019-06-08T11:00:52.757Z,26.50
2019-06-08T11:03:25.495Z,26.80
2019-06-08T11:06:00.722Z,26.80
2019-06-08T11:08:33.089Z,27.40
2019-06-08T11:11:11.982Z,27.70
2019-06-08T11:13:50.068Z,27.00
2019-06-08T11:16:25.617Z,26.50
2019-06-08T11:19:00.977Z,26.40
2019-06-08T11:21:34.452Z,26.90
2019-06-08T11:24:23.113Z,27.50
2019-06-08T11:26:41.882Z,27.70
2019-06-08T11:29:14.720Z,27.50
2019-06-08T11:31:50.947Z,26.90
2019-06-08T11:34:28.727Z,26.70
2019-06-08T11:37:03.638Z,26.10
2019-06-08T11:39:38.206Z,26.10
2019-06-08T11:42:12.956Z,25.90
2019-06-08T11:44:51.225Z,26.00
2019-06-08T11:47:22.844Z,26.50
2019-06-08T11:49:58.203Z,26.80
2019-06-08T11:52:32.916Z,27.10
2019-06-08T11:55:10.963Z,26.70
2019-06-08T11:57:44.308Z,26.10
2019-06-08T12:00:25.222Z,26.00
2019-06-08T12:02:53.262Z,26.10
2019-06-08T12:05:27.842Z,26.00
2019-06-08T12:08:08.447Z,26.00
2019-06-08T12:10:41.131Z,25.90
2019-06-08T12:13:17.710Z,25.70
2019-06-08T12:15:49.961Z,25.70
2019-06-08T12:18:24.667Z,25.60
2019-06-08T12:21:01.503Z,26.00
2019-06-08T12:23:35.284Z,26.40
2019-06-08T12:26:12.257Z,26.20
2019-06-08T12:28:50.815Z,25.70
2019-06-08T12:31:40.075Z,25.50
2019-06-08T12:34:13.469Z,25.20
2019-06-08T12:36:49.146Z,25.00
2019-06-08T12:39:22.076Z,25.00
2019-06-08T12:41:55.461Z,24.70
2019-06-08T12:44:29.120Z,24.50
2019-06-08T12:47:02.790Z,24.70
2019-06-08T12:49:40.102Z,24.70
2019-06-08T12:52:13.862Z,24.60
2019-06-08T12:54:59.280Z,24.80
2019-06-08T12:57:22.992Z,24.70
2019-06-08T12:59:59.817Z,24.60
2019-06-08T13:02:30.387Z,24.70
2019-06-08T13:05:03.104Z,25.20
2019-06-08T13:07:38.592Z,25.20
2019-06-08T13:10:11.526Z,25.00
2019-06-08T13:12:50.054Z,24.80
2019-06-08T13:15:25.047Z,25.30
2019-06-08T13:18:01.470Z,25.50
2019-06-08T13:20:39.186Z,25.70
2019-06-08T13:23:13.058Z,25.50
2019-06-08T13:25:48.443Z,25.10
2019-06-08T13:28:41.255Z,24.70
2019-06-08T13:31:24.091Z,24.50
2019-06-08T13:33:58.542Z,24.50
2019-06-08T13:36:29.696Z,25.00
2019-06-08T13:39:10.019Z,24.80
2019-06-08T13:41:45.623Z,24.80
2019-06-08T13:44:18.227Z,25.20
2019-06-08T13:46:52.400Z,25.10
2019-06-08T13:49:29.667Z,25.00
2019-06-08T13:52:00.208Z,25.50
2019-06-08T13:54:38.025Z,26.00
2019-06-08T13:57:10.595Z,26.20
2019-06-08T13:59:51.670Z,25.80
2019-06-08T14:02:31.627Z,25.90
2019-06-08T14:05:03.445Z,25.90
2019-06-08T14:07:38.095Z,25.80
2019-06-08T14:10:14.596Z,25.80
2019-06-08T14:12:48.852Z,25.50
2019-06-08T14:15:23.414Z,25.20
2019-06-08T14:17:59.322Z,25.00
2019-06-08T14:20:34.656Z,24.90
2019-06-08T14:23:08.954Z,25.50
2019-06-08T14:25:50.665Z,25.10
2019-06-08T14:28:22.872Z,25.10
2019-06-08T14:30:55.195Z,25.10
2019-06-08T14:33:32.061Z,25.10
2019-06-08T14:36:03.357Z,25.00
2019-06-08T14:38:42.095Z,25.10
2019-06-08T14:41:17.822Z,25.00
2019-06-08T14:43:54.469Z,25.00
2019-06-08T14:46:28.796Z,25.00
2019-06-08T14:49:05.393Z,24.80
2019-06-08T14:51:52.287Z,24.80
2019-06-08T14:54:30.873Z,24.80
2019-06-08T14:57:02.214Z,24.50
2019-06-08T14:59:39.167Z,24.30
2019-06-08T15:02:19.355Z,24.10
2019-06-08T15:04:54.351Z,24.00
2019-06-08T15:07:32.553Z,23.90
2019-06-08T15:10:09.990Z,23.70
2019-06-08T15:12:45.678Z,23.40
2019-06-08T15:15:19.815Z,23.40
2019-06-08T15:17:58.098Z,23.30
2019-06-08T15:20:30.620Z,23.10
2019-06-08T15:23:05.891Z,22.80
2019-06-08T15:25:42.618Z,22.80
2019-06-08T15:28:15.484Z,22.80
2019-06-08T15:30:54.328Z,22.80
2019-06-08T15:33:31.022Z,22.90
2019-06-08T15:36:03.593Z,22.80
2019-06-08T15:38:38.409Z,22.90
2019-06-08T15:41:12.870Z,22.90
2019-06-08T15:43:48.134Z,22.90
2019-06-08T15:46:22.008Z,22.80
2019-06-08T15:48:55.233Z,22.70
2019-06-08T15:51:37.579Z,22.50
2019-06-08T15:54:08.538Z,22.50
2019-06-08T15:56:48.573Z,22.40
2019-06-08T15:59:18.217Z,22.40
2019-06-08T16:01:52.984Z,22.50
2019-06-08T16:04:27.810Z,22.50
2019-06-08T16:07:01.982Z,22.50
2019-06-08T16:09:39.640Z,22.40
2019-06-08T16:12:15.844Z,22.20
2019-06-08T16:14:48.791Z,22.20
2019-06-08T16:17:21.546Z,22.20
2019-06-08T16:19:59.208Z,22.00
2019-06-08T16:22:33.859Z,22.10
2019-06-08T16:25:09.211Z,22.10
2019-06-08T16:27:42.090Z,21.90
2019-06-08T16:30:16.408Z,21.80
2019-06-08T16:32:49.240Z,21.80
2019-06-08T16:35:22.233Z,21.80
2019-06-08T16:37:54.965Z,21.60
2019-06-08T16:40:27.934Z,21.70
2019-06-08T16:43:06.478Z,21.50
2019-06-08T16:45:42.540Z,21.50
2019-06-08T16:48:16.170Z,21.40
2019-06-08T16:50:52.764Z,21.50
2019-06-08T16:53:44.463Z,21.40
2019-06-08T16:56:20.715Z,21.30
2019-06-08T16:58:54.997Z,21.40
2019-06-08T17:01:32.927Z,21.40
2019-06-08T17:04:06.046Z,21.30
2019-06-08T17:06:43.243Z,21.30
2019-06-08T17:09:19.045Z,21.40
2019-06-08T17:11:54.566Z,21.40
2019-06-08T17:14:28.269Z,21.40
2019-06-08T17:17:03.037Z,21.20
2019-06-08T17:19:43.028Z,21.20
2019-06-08T17:22:18.555Z,21.10
2019-06-08T17:24:54.219Z,21.10
2019-06-08T17:27:32.527Z,21.20
2019-06-08T17:30:08.595Z,21.20
2019-06-08T17:32:40.586Z,21.20
2019-06-08T17:35:18.010Z,21.20
2019-06-08T17:37:50.595Z,21.00
2019-06-08T17:40:27.395Z,21.10
2019-06-08T17:43:00.303Z,21.10
2019-06-08T17:45:42.795Z,21.10
2019-06-08T17:48:15.959Z,21.10
2019-06-08T17:50:52.478Z,20.90
2019-06-08T17:53:28.500Z,20.90
2019-06-08T17:56:10.511Z,20.90
2019-06-08T17:58:47.473Z,20.80
2019-06-08T18:01:27.440Z,20.80
2019-06-08T18:04:00.006Z,20.80
2019-06-08T18:06:33.674Z,20.80
2019-06-08T18:09:17.345Z,20.70
2019-06-08T18:11:50.051Z,20.70
2019-06-08T18:14:28.816Z,20.70
2019-06-08T18:17:03.642Z,20.70
2019-06-08T18:19:39.826Z,20.70
2019-06-08T18:22:15.239Z,20.70
2019-06-08T18:24:47.750Z,20.70
2019-06-08T18:27:20.075Z,20.50
2019-06-08T18:29:54.823Z,20.40
2019-06-08T18:32:27.636Z,20.40
2019-06-08T18:35:00.550Z,20.30
2019-06-08T18:37:39.425Z,20.30
2019-06-08T18:40:13.384Z,20.30
2019-06-08T18:42:48.475Z,20.30
2019-06-08T18:45:27.566Z,20.30
2019-06-08T18:48:03.113Z,20.30
2019-06-08T18:50:39.121Z,20.30
2019-06-08T18:53:10.548Z,20.30
2019-06-08T18:55:50.127Z,20.20
2019-06-08T18:58:25.089Z,20.20
2019-06-08T19:00:58.220Z,20.20
2019-06-08T19:03:31.992Z,20.10
2019-06-08T19:06:11.930Z,20.00
2019-06-08T19:08:48.856Z,19.90
2019-06-08T19:11:28.036Z,20.00
2019-06-08T19:14:00.607Z,20.00
2019-06-08T19:16:40.841Z,19.90
2019-06-08T19:19:13.669Z,19.90
2019-06-08T19:21:51.909Z,19.90
2019-06-08T19:24:24.672Z,19.90
2019-06-08T19:26:58.939Z,19.90
2019-06-08T19:29:38.184Z,19.80
2019-06-08T19:32:12.083Z,19.80
2019-06-08T19:34:53.254Z,19.70
2019-06-08T19:37:23.252Z,19.70
2019-06-08T19:39:59.560Z,19.70
2019-06-08T19:42:40.021Z,19.70
2019-06-08T19:45:14.611Z,19.50
2019-06-08T19:47:54.791Z,19.60
2019-06-08T19:50:31.437Z,19.50
2019-06-08T19:53:07.988Z,19.50
2019-06-08T19:55:45.444Z,19.30
2019-06-08T19:58:19.660Z,19.30
2019-06-08T20:00:54.574Z,19.30
2019-06-08T20:03:29.791Z,19.20
2019-06-08T20:06:08.943Z,18.90
2019-06-08T20:08:42.898Z,19.00
2019-06-08T20:11:23.086Z,18.90
2019-06-08T20:13:59.715Z,18.80
2019-06-08T20:16:34.255Z,18.70
2019-06-08T20:19:08.096Z,18.60
2019-06-08T20:21:42.788Z,18.40
2019-06-08T20:24:18.289Z,18.30
2019-06-08T20:29:28.291Z,18.20
2019-06-08T20:32:00.953Z,18.10
2019-06-08T20:34:33.885Z,18.10
2019-06-08T20:37:08.953Z,18.00
2019-06-08T20:39:57.292Z,18.00
2019-06-08T20:42:17.391Z,17.70
2019-06-08T20:44:53.166Z,17.70
2019-06-08T20:47:27.637Z,17.70
2019-06-08T20:50:00.784Z,17.60
2019-06-08T20:52:33.625Z,17.60
2019-06-08T20:55:07.736Z,17.50
2019-06-08T20:57:40.935Z,17.50
2019-06-08T21:00:13.729Z,17.50
2019-06-08T21:02:49.841Z,17.50
2019-06-08T21:05:30.147Z,17.50
2019-06-08T21:08:08.731Z,17.30
2019-06-08T21:10:54.639Z,17.20
2019-06-08T21:13:37.358Z,17.20
2019-06-08T21:16:19.243Z,17.10
2019-06-08T21:19:07.494Z,17.10
2019-06-08T21:21:42.548Z,17.00
2019-06-08T21:24:28.054Z,16.90
2019-06-08T21:27:08.162Z,16.90
2019-06-08T21:29:56.194Z,16.90
2019-06-08T21:32:31.466Z,16.80
2019-06-08T21:35:07.622Z,16.90
2019-06-08T21:37:50.707Z,16.90
2019-06-08T21:40:27.972Z,16.80
2019-06-08T21:43:02.868Z,16.90
2019-06-08T21:45:41.235Z,16.80
2019-06-08T21:48:27.491Z,16.80
2019-06-08T21:51:08.479Z,16.80
2019-06-08T21:56:51.596Z,16.80
2019-06-08T21:59:32.065Z,16.80
2019-06-08T22:02:04.493Z,16.80
2019-06-08T22:04:41.993Z,16.80
2019-06-08T22:07:28.331Z,16.70
2019-06-08T22:10:07.270Z,16.80
2019-06-08T22:12:50.736Z,16.80
2019-06-08T22:15:27.713Z,16.70
2019-06-08T22:18:08.011Z,16.80
2019-06-08T22:20:43.623Z,16.90
2019-06-08T22:23:23.151Z,16.90
2019-06-08T22:26:03.673Z,17.00
2019-06-08T22:28:41.890Z,17.10
2019-06-08T22:31:23.078Z,17.10
2019-06-08T22:34:02.055Z,16.90
2019-06-08T22:36:37.196Z,16.80
2019-06-08T22:39:14.568Z,16.80
2019-06-08T22:41:47.820Z,16.80
2019-06-08T22:44:21.273Z,16.90
2019-06-08T22:46:57.713Z,16.80
2019-06-08T22:49:29.758Z,16.70
2019-06-08T22:52:08.137Z,16.70
2019-06-08T22:54:40.963Z,16.80
2019-06-08T22:57:18.399Z,16.80
2019-06-08T22:59:58.822Z,16.80
2019-06-08T23:02:33.445Z,16.80
2019-06-08T23:05:08.842Z,16.90
2019-06-08T23:07:41.538Z,16.80
2019-06-08T23:10:22.436Z,16.80
2019-06-08T23:12:56.768Z,16.90
2019-06-08T23:15:35.258Z,17.00
2019-06-08T23:18:28.553Z,17.00
2019-06-08T23:21:04.285Z,16.90
2019-06-08T23:23:42.973Z,16.90
2019-06-08T23:26:18.132Z,16.90
2019-06-08T23:28:56.068Z,16.80
2019-06-08T23:31:35.314Z,16.90
2019-06-08T23:34:11.301Z,16.90
2019-06-08T23:36:57.563Z,17.00
2019-06-08T23:39:19.022Z,17.00
2019-06-08T23:41:51.743Z,17.00
2019-06-08T23:44:33.607Z,17.10
2019-06-08T23:47:06.393Z,17.00
2019-06-08T23:49:41.180Z,17.00
2019-06-08T23:52:13.979Z,17.00
2019-06-08T23:54:48.884Z,17.00
2019-06-08T23:57:31.535Z,17.00
